createdAt,value
2023-04-27T00:02:34.794Z,66.08
2023-04-27T00:08:54.589Z,66.4
2023-04-27T00:15:17.584Z,66.82
2023-04-27T00:21:37.558Z,66.55
2023-04-27T00:28:00.654Z,67.48
2023-04-27T00:34:20.609Z,67.78
2023-04-27T00:40:43.599Z,68.68
2023-04-27T00:47:03.592Z,69.02
2023-04-27T00:53:26.720Z,68.6
2023-04-27T00:59:46.604Z,68.43
2023-04-27T01:06:09.575Z,67.85
2023-04-27T01:12:29.629Z,68.72
2023-04-27T01:18:52.662Z,69.13
2023-04-27T01:25:12.630Z,69.13
2023-04-27T01:31:35.607Z,70.14
2023-04-27T01:37:55.583Z,70.47
2023-04-27T01:44:18.584Z,70.33
2023-04-27T01:50:38.601Z,70.08
2023-04-27T01:57:01.622Z,70.51
2023-04-27T02:03:21.784Z,70.37
2023-04-27T02:09:44.638Z,69.92
2023-04-27T02:16:04.639Z,70.76
2023-04-27T02:22:27.579Z,71.72
2023-04-27T02:28:47.755Z,71.91
2023-04-27T02:35:10.600Z,72.18
2023-04-27T02:41:30.655Z,71.97
2023-04-27T02:47:53.669Z,72.09
2023-04-27T02:54:13.601Z,72.43
2023-04-27T03:00:36.617Z,73.23
2023-04-27T03:06:56.589Z,73.46
2023-04-27T03:13:19.658Z,73.46
2023-04-27T03:37:01.515Z,75.23
2023-04-27T03:43:21.612Z,75.13
2023-04-27T03:49:44.602Z,74.86
2023-04-27T03:56:04.615Z,75.3
2023-04-27T04:02:28.013Z,75.34
2023-04-27T04:08:47.586Z,75.34
2023-04-27T04:15:10.608Z,75.37
2023-04-27T04:21:30.612Z,75.64
2023-04-27T04:27:53.628Z,74.99
2023-04-27T04:34:13.631Z,75.38
2023-04-27T04:40:36.571Z,75.33
2023-04-27T04:46:56.643Z,75.04
2023-04-27T04:53:19.633Z,75.37
2023-04-27T04:59:39.614Z,74.87
2023-04-27T05:06:02.607Z,75.02
2023-04-27T05:12:22.778Z,75.49
2023-04-27T05:18:45.630Z,75.62
2023-04-27T05:25:05.652Z,74.94
2023-04-27T05:31:28.653Z,74.84
2023-04-27T05:37:48.625Z,74.21
2023-04-27T05:44:11.664Z,73.12
2023-04-27T05:50:31.634Z,71.77
2023-04-27T05:56:54.660Z,70.75
2023-04-27T06:03:14.715Z,70.74
2023-04-27T06:09:37.655Z,68.88
2023-04-27T06:15:57.728Z,68.89
2023-04-27T06:22:20.580Z,67.21
2023-04-27T06:28:40.736Z,66.75
2023-04-27T06:35:03.598Z,65.83
2023-04-27T06:41:23.600Z,65.45
2023-04-27T06:47:46.646Z,65.53
2023-04-27T06:54:06.620Z,65.52
2023-04-27T07:00:29.660Z,63.46
2023-04-27T07:06:49.629Z,64.42
2023-04-27T07:13:13.932Z,62.26
2023-04-27T07:19:32.580Z,61.56
2023-04-27T07:25:55.594Z,59.65
2023-04-27T07:32:15.644Z,58.62
2023-04-27T07:38:38.577Z,57.99
2023-04-27T07:44:58.589Z,57.48
2023-04-27T07:51:21.588Z,56.7
2023-04-27T07:57:41.563Z,56.38
2023-04-27T08:04:04.818Z,56.76
2023-04-27T08:10:24.603Z,55.23
2023-04-27T08:16:47.916Z,55.44
2023-04-27T08:23:07.606Z,54.66
2023-04-27T08:29:30.754Z,53.93
2023-04-27T08:53:29.647Z,49.94
2023-04-27T08:59:49.815Z,51.09
2023-04-27T09:06:12.581Z,49.63
2023-04-27T09:12:33.624Z,46.79
2023-04-27T09:18:56.572Z,45.67
2023-04-27T09:25:16.590Z,48.01
2023-04-27T09:31:39.653Z,47.95
2023-04-27T09:37:59.579Z,43.62
2023-04-27T09:44:22.589Z,43.03
2023-04-27T09:50:42.588Z,41.8
2023-04-27T09:57:05.613Z,43.49
2023-04-27T10:03:25.895Z,42.61
2023-04-27T10:09:48.594Z,39.67
2023-04-27T10:16:08.628Z,45.37
2023-04-27T10:22:31.570Z,42.93
2023-04-27T10:28:51.618Z,41.54
2023-04-27T10:35:14.600Z,41.53
2023-04-27T10:41:34.641Z,38.49
2023-04-27T10:47:57.644Z,39.6
2023-04-27T10:54:17.576Z,37.71
2023-04-27T11:00:40.633Z,39.36
2023-04-27T11:07:00.595Z,39.58
2023-04-27T11:13:23.639Z,38.44
2023-04-27T11:19:43.573Z,35.94
2023-04-27T11:26:06.633Z,36.44
2023-04-27T11:32:26.631Z,38.15
2023-04-27T11:38:49.801Z,36.17
2023-04-27T11:45:09.649Z,37.96
2023-04-27T11:51:32.573Z,37.61
2023-04-27T11:57:52.598Z,38.99
2023-04-27T12:04:15.890Z,36.81
2023-04-27T12:10:35.587Z,37.11
2023-04-27T12:16:58.663Z,39.75
2023-04-27T12:23:18.642Z,36.37
2023-04-27T12:29:41.613Z,38.77
2023-04-27T12:36:01.570Z,36.66
2023-04-27T12:42:24.674Z,34.89
2023-04-27T12:48:44.630Z,35.75
2023-04-27T12:55:11.033Z,35.39
2023-04-27T13:01:27.692Z,34.35
2023-04-27T13:07:50.598Z,34.48
2023-04-27T13:14:10.560Z,32.49
2023-04-27T13:20:33.618Z,33.85
2023-04-27T13:26:53.566Z,34.75
2023-04-27T13:33:22.362Z,33.61
2023-04-27T13:39:36.593Z,35.04
2023-04-27T13:46:01.049Z,31.46
2023-04-27T13:52:19.610Z,31.73
2023-04-27T13:58:42.633Z,30.49
2023-04-27T14:05:02.582Z,29.85
2023-04-27T14:11:25.588Z,30.59
2023-04-27T14:28:57.405Z,30.15
2023-04-27T14:35:19.695Z,34.64
2023-04-27T14:41:39.573Z,29.94
2023-04-27T14:48:02.648Z,30.95
2023-04-27T14:54:22.568Z,31.33
2023-04-27T15:00:45.578Z,31.83
2023-04-27T15:07:05.899Z,30.04
2023-04-27T15:13:28.580Z,31.27
2023-04-27T15:19:48.589Z,32.33
2023-04-27T15:26:11.606Z,33.72
2023-04-27T15:32:31.638Z,33.94
2023-04-27T15:38:54.562Z,32.87
2023-04-27T15:45:14.728Z,32.77
2023-04-27T15:51:37.596Z,33.62
2023-04-27T15:57:57.559Z,31.33
2023-04-27T16:04:20.624Z,36.1
2023-04-27T16:10:40.563Z,34.57
2023-04-27T16:17:03.567Z,33.92
2023-04-27T16:23:23.584Z,34.72
2023-04-27T16:29:46.576Z,35.33
2023-04-27T16:36:06.568Z,36.11
2023-04-27T16:42:29.615Z,37.77
2023-04-27T16:48:49.569Z,37.04
2023-04-27T16:55:12.594Z,38.98
2023-04-27T17:01:32.654Z,39.31
2023-04-27T17:07:55.569Z,38.34
2023-04-27T17:14:15.593Z,40.03
2023-04-27T17:20:40.313Z,39.01
2023-04-27T17:26:58.604Z,39.47
2023-04-27T17:33:21.600Z,40.27
2023-04-27T17:39:41.602Z,40.72
2023-04-27T17:46:04.672Z,42.36
2023-04-27T17:52:24.572Z,42.95
2023-04-27T17:58:47.624Z,43.18
2023-04-27T18:05:07.569Z,42.98
2023-04-27T18:11:30.575Z,43.54
2023-04-27T18:17:50.658Z,44.91
2023-04-27T18:24:13.649Z,45.82
2023-04-27T18:30:33.587Z,45.68
2023-04-27T18:36:56.621Z,46.42
2023-04-27T18:43:16.583Z,47.09
2023-04-27T18:49:39.629Z,47.56
2023-04-27T18:55:59.592Z,48.18
2023-04-27T19:02:22.615Z,48.52
2023-04-27T19:08:42.577Z,49.58
2023-04-27T19:15:05.594Z,50.28
2023-04-27T19:21:25.650Z,49.45
2023-04-27T19:27:48.583Z,49.69
2023-04-27T19:34:08.590Z,49.69
2023-04-27T19:40:31.579Z,49.33
2023-04-27T19:46:51.597Z,50.01
2023-04-27T20:09:39.602Z,51.62
2023-04-27T20:16:02.668Z,52.53
2023-04-27T20:22:24.172Z,52.94
2023-04-27T20:28:46.610Z,52.9
2023-04-27T20:35:06.561Z,52.89
2023-04-27T20:41:29.595Z,53.11
2023-04-27T20:47:49.616Z,53.37
2023-04-27T20:54:12.621Z,53.35
2023-04-27T21:00:32.825Z,53.61
2023-04-27T21:06:55.608Z,53.75
2023-04-27T21:13:15.613Z,54.34
2023-04-27T21:19:38.579Z,54.87
2023-04-27T21:25:58.590Z,56.04
2023-04-27T21:32:21.614Z,55.56
2023-04-27T21:38:41.565Z,56.88
2023-04-27T21:45:04.624Z,56.62
2023-04-27T21:51:24.567Z,56.86
2023-04-27T21:57:47.569Z,56.97
2023-04-27T22:20:44.590Z,57.82
2023-04-27T22:27:04.611Z,57.4
2023-04-27T22:33:27.563Z,57.53
2023-04-27T22:39:47.652Z,57.55
2023-04-27T22:46:10.580Z,57.67
2023-04-27T22:52:30.616Z,57.67
2023-04-27T22:58:53.601Z,57.23
2023-04-27T23:05:13.653Z,57.71
2023-04-27T23:11:36.595Z,58.88
2023-04-27T23:17:56.647Z,59.62
2023-04-27T23:24:19.579Z,60.04
2023-04-27T23:30:39.632Z,59.88
2023-04-27T23:37:02.732Z,61.41
2023-04-27T23:43:22.624Z,60.7
2023-04-27T23:49:45.594Z,59.81
2023-04-27T23:56:05.634Z,60.81
